sensor_id;sensor_type;location;lat;lon;timestamp;P1;durP1;ratioP1;P2;durP2;ratioP2
71626;SDS011;59475;52.464;13.590;2022-11-04T00:01:01;12.93;;;6.30;;
71626;SDS011;59475;52.464;13.590;2022-11-04T00:03:28;11.80;;;6.47;;
71626;SDS011;59475;52.464;13.590;2022-11-04T00:05:54;13.87;;;7.50;;
71626;SDS011;59475;52.464;13.590;2022-11-04T00:08:19;12.43;;;6.70;;
71626;SDS011;59475;52.464;13.590;2022-11-04T00:10:57;14.25;;;6.38;;
71626;SDS011;59475;52.464;13.590;2022-11-04T00:13:41;10.95;;;6.18;;
71626;SDS011;59475;52.464;13.590;2022-11-04T00:16:07;11.45;;;6.38;;
71626;SDS011;59475;52.464;13.590;2022-11-04T00:18:52;13.23;;;6.72;;
71626;SDS011;59475;52.464;13.590;2022-11-04T00:21:18;9.43;;;6.00;;
71626;SDS011;59475;52.464;13.590;2022-11-04T00:24:03;10.80;;;6.25;;
71626;SDS011;59475;52.464;13.590;2022-11-04T00:26:48;12.82;;;5.78;;
71626;SDS011;59475;52.464;13.590;2022-11-04T00:29:32;8.05;;;6.40;;
71626;SDS011;59475;52.464;13.590;2022-11-04T00:31:57;15.33;;;6.40;;
71626;SDS011;59475;52.464;13.590;2022-11-04T00:34:48;10.50;;;6.03;;
71626;SDS011;59475;52.464;13.590;2022-11-04T00:37:14;12.77;;;6.57;;
71626;SDS011;59475;52.464;13.590;2022-11-04T00:39:39;10.83;;;6.67;;
71626;SDS011;59475;52.464;13.590;2022-11-04T00:42:04;13.10;;;7.10;;
71626;SDS011;59475;52.464;13.590;2022-11-04T00:44:30;14.13;;;7.07;;
71626;SDS011;59475;52.464;13.590;2022-11-04T00:46:55;14.17;;;7.57;;
71626;SDS011;59475;52.464;13.590;2022-11-04T00:49:20;16.83;;;7.27;;
71626;SDS011;59475;52.464;13.590;2022-11-04T00:51:46;16.43;;;7.10;;
71626;SDS011;59475;52.464;13.590;2022-11-04T00:54:11;11.25;;;7.07;;
71626;SDS011;59475;52.464;13.590;2022-11-04T00:56:37;13.03;;;7.17;;
71626;SDS011;59475;52.464;13.590;2022-11-04T00:59:03;13.52;;;7.63;;
71626;SDS011;59475;52.464;13.590;2022-11-04T01:01:28;15.90;;;8.03;;
71626;SDS011;59475;52.464;13.590;2022-11-04T01:03:53;14.63;;;6.87;;
71626;SDS011;59475;52.464;13.590;2022-11-04T01:06:21;14.15;;;6.53;;
71626;SDS011;59475;52.464;13.590;2022-11-04T01:08:47;16.48;;;7.00;;
71626;SDS011;59475;52.464;13.590;2022-11-04T01:11:13;15.07;;;7.07;;
71626;SDS011;59475;52.464;13.590;2022-11-04T01:13:40;13.15;;;7.05;;
71626;SDS011;59475;52.464;13.590;2022-11-04T01:16:07;11.50;;;6.57;;
71626;SDS011;59475;52.464;13.590;2022-11-04T01:18:34;10.93;;;6.95;;
71626;SDS011;59475;52.464;13.590;2022-11-04T01:21:03;12.93;;;6.80;;
71626;SDS011;59475;52.464;13.590;2022-11-04T01:23:29;16.80;;;6.40;;
71626;SDS011;59475;52.464;13.590;2022-11-04T01:25:55;9.90;;;5.97;;
71626;SDS011;59475;52.464;13.590;2022-11-04T01:28:20;14.50;;;7.80;;
71626;SDS011;59475;52.464;13.590;2022-11-04T01:30:45;12.47;;;6.87;;
71626;SDS011;59475;52.464;13.590;2022-11-04T01:33:11;10.33;;;6.67;;
71626;SDS011;59475;52.464;13.590;2022-11-04T01:35:36;14.37;;;6.60;;
71626;SDS011;59475;52.464;13.590;2022-11-04T01:38:02;12.47;;;6.90;;
71626;SDS011;59475;52.464;13.590;2022-11-04T01:40:27;15.10;;;7.53;;
71626;SDS011;59475;52.464;13.590;2022-11-04T01:42:52;12.10;;;7.32;;
71626;SDS011;59475;52.464;13.590;2022-11-04T01:45:18;15.70;;;7.83;;
71626;SDS011;59475;52.464;13.590;2022-11-04T01:47:51;12.45;;;7.03;;
71626;SDS011;59475;52.464;13.590;2022-11-04T01:50:24;14.13;;;7.17;;
71626;SDS011;59475;52.464;13.590;2022-11-04T01:52:53;13.48;;;8.40;;
71626;SDS011;59475;52.464;13.590;2022-11-04T01:55:34;15.32;;;8.20;;
71626;SDS011;59475;52.464;13.590;2022-11-04T01:58:05;15.88;;;8.15;;
71626;SDS011;59475;52.464;13.590;2022-11-04T02:00:39;14.93;;;7.72;;
71626;SDS011;59475;52.464;13.590;2022-11-04T02:05:57;14.75;;;8.63;;
71626;SDS011;59475;52.464;13.590;2022-11-04T02:08:24;13.75;;;8.35;;
71626;SDS011;59475;52.464;13.590;2022-11-04T02:11:00;15.00;;;7.90;;
71626;SDS011;59475;52.464;13.590;2022-11-04T02:13:28;16.20;;;8.57;;
71626;SDS011;59475;52.464;13.590;2022-11-04T02:18:40;18.23;;;8.57;;
71626;SDS011;59475;52.464;13.590;2022-11-04T02:27:29;11.82;;;7.35;;
71626;SDS011;59475;52.464;13.590;2022-11-04T02:38:32;14.90;;;7.80;;
71626;SDS011;59475;52.464;13.590;2022-11-04T02:46:35;16.17;;;7.70;;
71626;SDS011;59475;52.464;13.590;2022-11-04T02:49:11;14.68;;;8.25;;
71626;SDS011;59475;52.464;13.590;2022-11-04T02:56:47;11.57;;;7.90;;
71626;SDS011;59475;52.464;13.590;2022-11-04T02:59:34;18.65;;;8.57;;
71626;SDS011;59475;52.464;13.590;2022-11-04T03:02:03;16.20;;;9.25;;
71626;SDS011;59475;52.464;13.590;2022-11-04T03:04:33;17.30;;;9.05;;
71626;SDS011;59475;52.464;13.590;2022-11-04T03:07:03;14.07;;;9.18;;
71626;SDS011;59475;52.464;13.590;2022-11-04T03:09:40;17.57;;;9.13;;
71626;SDS011;59475;52.464;13.590;2022-11-04T03:12:11;15.45;;;8.48;;
71626;SDS011;59475;52.464;13.590;2022-11-04T03:14:47;14.65;;;8.98;;
71626;SDS011;59475;52.464;13.590;2022-11-04T03:17:20;16.35;;;8.57;;
71626;SDS011;59475;52.464;13.590;2022-11-04T03:20:00;15.13;;;8.63;;
71626;SDS011;59475;52.464;13.590;2022-11-04T03:22:29;17.50;;;9.00;;
71626;SDS011;59475;52.464;13.590;2022-11-04T03:25:00;17.15;;;9.05;;
71626;SDS011;59475;52.464;13.590;2022-11-04T03:30:08;13.65;;;8.20;;
71626;SDS011;59475;52.464;13.590;2022-11-04T03:35:25;16.57;;;9.20;;
71626;SDS011;59475;52.464;13.590;2022-11-04T03:37:52;15.88;;;9.00;;
71626;SDS011;59475;52.464;13.590;2022-11-04T03:40:18;16.35;;;9.57;;
71626;SDS011;59475;52.464;13.590;2022-11-04T03:42:49;18.17;;;9.70;;
71626;SDS011;59475;52.464;13.590;2022-11-04T03:45:21;18.65;;;10.23;;
71626;SDS011;59475;52.464;13.590;2022-11-04T03:47:47;23.42;;;10.90;;
71626;SDS011;59475;52.464;13.590;2022-11-04T03:50:17;15.43;;;8.63;;
71626;SDS011;59475;52.464;13.590;2022-11-04T03:52:49;19.80;;;9.68;;
71626;SDS011;59475;52.464;13.590;2022-11-04T03:55:15;19.20;;;9.77;;
71626;SDS011;59475;52.464;13.590;2022-11-04T03:57:56;17.83;;;9.73;;
71626;SDS011;59475;52.464;13.590;2022-11-04T04:00:30;17.83;;;9.32;;
71626;SDS011;59475;52.464;13.590;2022-11-04T04:03:08;19.83;;;9.50;;
71626;SDS011;59475;52.464;13.590;2022-11-04T04:05:48;19.75;;;9.55;;
71626;SDS011;59475;52.464;13.590;2022-11-04T04:17:04;13.80;;;8.75;;
71626;SDS011;59475;52.464;13.590;2022-11-04T04:19:31;18.55;;;9.50;;
71626;SDS011;59475;52.464;13.590;2022-11-04T04:22:00;17.30;;;9.30;;
71626;SDS011;59475;52.464;13.590;2022-11-04T04:24:32;14.68;;;8.77;;
71626;SDS011;59475;52.464;13.590;2022-11-04T04:27:19;13.02;;;8.73;;
71626;SDS011;59475;52.464;13.590;2022-11-04T04:29:54;13.70;;;8.63;;
71626;SDS011;59475;52.464;13.590;2022-11-04T04:32:21;15.38;;;9.27;;
71626;SDS011;59475;52.464;13.590;2022-11-04T04:34:50;15.27;;;8.20;;
71626;SDS011;59475;52.464;13.590;2022-11-04T04:37:35;13.63;;;9.02;;
71626;SDS011;59475;52.464;13.590;2022-11-04T04:40:01;13.18;;;8.00;;
71626;SDS011;59475;52.464;13.590;2022-11-04T04:42:45;14.57;;;8.55;;
71626;SDS011;59475;52.464;13.590;2022-11-04T04:45:34;12.90;;;8.43;;
71626;SDS011;59475;52.464;13.590;2022-11-04T04:48:01;14.60;;;7.70;;
71626;SDS011;59475;52.464;13.590;2022-11-04T04:50:34;16.73;;;7.78;;
71626;SDS011;59475;52.464;13.590;2022-11-04T04:53:02;17.42;;;9.85;;
71626;SDS011;59475;52.464;13.590;2022-11-04T04:55:28;15.20;;;9.10;;
71626;SDS011;59475;52.464;13.590;2022-11-04T04:57:55;14.48;;;8.63;;
71626;SDS011;59475;52.464;13.590;2022-11-04T05:00:24;14.68;;;8.68;;
71626;SDS011;59475;52.464;13.590;2022-11-04T05:02:50;16.37;;;8.80;;
71626;SDS011;59475;52.464;13.590;2022-11-04T05:05:15;14.57;;;8.47;;
71626;SDS011;59475;52.464;13.590;2022-11-04T05:07:41;13.73;;;8.33;;
71626;SDS011;59475;52.464;13.590;2022-11-04T05:10:08;15.23;;;8.02;;
71626;SDS011;59475;52.464;13.590;2022-11-04T05:12:36;17.80;;;9.23;;
71626;SDS011;59475;52.464;13.590;2022-11-04T05:15:20;17.53;;;9.00;;
71626;SDS011;59475;52.464;13.590;2022-11-04T05:17:45;14.80;;;8.70;;
71626;SDS011;59475;52.464;13.590;2022-11-04T05:20:11;12.13;;;7.90;;
71626;SDS011;59475;52.464;13.590;2022-11-04T05:22:36;14.13;;;8.87;;
71626;SDS011;59475;52.464;13.590;2022-11-04T05:25:02;15.80;;;8.90;;
71626;SDS011;59475;52.464;13.590;2022-11-04T05:27:27;12.70;;;8.20;;
71626;SDS011;59475;52.464;13.590;2022-11-04T05:29:53;16.70;;;8.48;;
71626;SDS011;59475;52.464;13.590;2022-11-04T05:32:18;22.97;;;9.13;;
71626;SDS011;59475;52.464;13.590;2022-11-04T05:34:43;17.70;;;9.73;;
71626;SDS011;59475;52.464;13.590;2022-11-04T05:37:08;15.40;;;8.37;;
71626;SDS011;59475;52.464;13.590;2022-11-04T05:39:34;17.40;;;8.80;;
71626;SDS011;59475;52.464;13.590;2022-11-04T05:41:59;13.27;;;8.23;;
71626;SDS011;59475;52.464;13.590;2022-11-04T05:44:25;13.33;;;8.27;;
71626;SDS011;59475;52.464;13.590;2022-11-04T05:46:50;13.77;;;8.30;;
71626;SDS011;59475;52.464;13.590;2022-11-04T05:49:16;13.70;;;8.67;;
71626;SDS011;59475;52.464;13.590;2022-11-04T05:51:41;16.30;;;8.80;;
71626;SDS011;59475;52.464;13.590;2022-11-04T05:54:07;16.13;;;8.88;;
71626;SDS011;59475;52.464;13.590;2022-11-04T05:56:33;15.80;;;8.93;;
71626;SDS011;59475;52.464;13.590;2022-11-04T05:58:58;14.50;;;9.63;;
71626;SDS011;59475;52.464;13.590;2022-11-04T06:01:26;13.93;;;9.90;;
71626;SDS011;59475;52.464;13.590;2022-11-04T06:03:52;15.50;;;9.73;;
71626;SDS011;59475;52.464;13.590;2022-11-04T06:06:18;15.52;;;9.77;;
71626;SDS011;59475;52.464;13.590;2022-11-04T06:08:44;19.85;;;9.90;;
71626;SDS011;59475;52.464;13.590;2022-11-04T06:11:09;15.20;;;9.20;;
71626;SDS011;59475;52.464;13.590;2022-11-04T06:13:35;16.23;;;9.32;;
71626;SDS011;59475;52.464;13.590;2022-11-04T06:16:00;15.80;;;10.07;;
71626;SDS011;59475;52.464;13.590;2022-11-04T06:18:26;17.43;;;9.80;;
71626;SDS011;59475;52.464;13.590;2022-11-04T06:23:41;17.88;;;9.77;;
71626;SDS011;59475;52.464;13.590;2022-11-04T06:26:08;20.67;;;10.55;;
71626;SDS011;59475;52.464;13.590;2022-11-04T06:28:34;16.47;;;10.47;;
71626;SDS011;59475;52.464;13.590;2022-11-04T06:31:00;16.63;;;10.00;;
71626;SDS011;59475;52.464;13.590;2022-11-04T06:33:27;21.05;;;11.38;;
71626;SDS011;59475;52.464;13.590;2022-11-04T06:35:57;18.03;;;10.13;;
71626;SDS011;59475;52.464;13.590;2022-11-04T06:38:23;21.23;;;10.85;;
71626;SDS011;59475;52.464;13.590;2022-11-04T06:40:48;19.10;;;11.50;;
71626;SDS011;59475;52.464;13.590;2022-11-04T06:43:13;21.90;;;11.83;;
71626;SDS011;59475;52.464;13.590;2022-11-04T06:45:39;19.37;;;11.27;;
71626;SDS011;59475;52.464;13.590;2022-11-04T06:48:04;19.47;;;12.70;;
71626;SDS011;59475;52.464;13.590;2022-11-04T06:50:30;19.00;;;11.47;;
71626;SDS011;59475;52.464;13.590;2022-11-04T06:52:55;19.55;;;11.75;;
71626;SDS011;59475;52.464;13.590;2022-11-04T06:55:20;22.43;;;11.40;;
71626;SDS011;59475;52.464;13.590;2022-11-04T06:57:46;20.17;;;10.73;;
71626;SDS011;59475;52.464;13.590;2022-11-04T07:00:11;18.10;;;11.03;;
71626;SDS011;59475;52.464;13.590;2022-11-04T07:02:37;20.50;;;11.07;;
71626;SDS011;59475;52.464;13.590;2022-11-04T07:05:03;21.77;;;12.00;;
71626;SDS011;59475;52.464;13.590;2022-11-04T07:07:29;20.40;;;11.93;;
71626;SDS011;59475;52.464;13.590;2022-11-04T07:09:55;23.60;;;12.20;;
71626;SDS011;59475;52.464;13.590;2022-11-04T07:12:20;19.30;;;12.03;;
71626;SDS011;59475;52.464;13.590;2022-11-04T07:14:47;19.45;;;11.65;;
71626;SDS011;59475;52.464;13.590;2022-11-04T07:17:12;21.00;;;11.53;;
71626;SDS011;59475;52.464;13.590;2022-11-04T07:19:38;21.23;;;11.57;;
71626;SDS011;59475;52.464;13.590;2022-11-04T07:22:03;19.50;;;12.03;;
71626;SDS011;59475;52.464;13.590;2022-11-04T07:24:28;17.20;;;10.83;;
71626;SDS011;59475;52.464;13.590;2022-11-04T07:26:54;21.30;;;11.47;;
71626;SDS011;59475;52.464;13.590;2022-11-04T07:29:20;16.80;;;11.10;;
71626;SDS011;59475;52.464;13.590;2022-11-04T07:31:45;18.87;;;11.13;;
71626;SDS011;59475;52.464;13.590;2022-11-04T07:34:10;25.77;;;11.73;;
71626;SDS011;59475;52.464;13.590;2022-11-04T07:36:36;22.90;;;12.13;;
71626;SDS011;59475;52.464;13.590;2022-11-04T07:39:01;17.63;;;12.07;;
71626;SDS011;59475;52.464;13.590;2022-11-04T07:41:27;20.77;;;12.63;;
71626;SDS011;59475;52.464;13.590;2022-11-04T07:43:53;20.77;;;11.70;;
71626;SDS011;59475;52.464;13.590;2022-11-04T07:46:19;22.38;;;12.35;;
71626;SDS011;59475;52.464;13.590;2022-11-04T07:48:45;22.08;;;12.75;;
71626;SDS011;59475;52.464;13.590;2022-11-04T07:51:11;20.67;;;12.10;;
71626;SDS011;59475;52.464;13.590;2022-11-04T07:53:40;18.42;;;12.07;;
71626;SDS011;59475;52.464;13.590;2022-11-04T07:56:06;19.85;;;11.90;;
71626;SDS011;59475;52.464;13.590;2022-11-04T07:58:35;18.70;;;11.33;;
71626;SDS011;59475;52.464;13.590;2022-11-04T08:01:01;22.50;;;12.15;;
71626;SDS011;59475;52.464;13.590;2022-11-04T08:03:29;19.93;;;12.17;;
71626;SDS011;59475;52.464;13.590;2022-11-04T08:05:57;25.80;;;13.13;;
71626;SDS011;59475;52.464;13.590;2022-11-04T08:08:25;18.05;;;12.40;;
71626;SDS011;59475;52.464;13.590;2022-11-04T08:10:51;23.02;;;12.05;;
71626;SDS011;59475;52.464;13.590;2022-11-04T08:13:21;19.05;;;11.75;;
71626;SDS011;59475;52.464;13.590;2022-11-04T08:15:46;17.30;;;11.63;;
71626;SDS011;59475;52.464;13.590;2022-11-04T08:18:12;19.80;;;12.03;;
71626;SDS011;59475;52.464;13.590;2022-11-04T08:20:37;19.37;;;11.67;;
71626;SDS011;59475;52.464;13.590;2022-11-04T08:23:02;21.90;;;12.37;;
71626;SDS011;59475;52.464;13.590;2022-11-04T08:25:28;18.60;;;12.17;;
71626;SDS011;59475;52.464;13.590;2022-11-04T08:27:53;20.87;;;11.27;;
71626;SDS011;59475;52.464;13.590;2022-11-04T08:30:18;20.73;;;11.90;;
71626;SDS011;59475;52.464;13.590;2022-11-04T08:32:44;19.30;;;11.57;;
71626;SDS011;59475;52.464;13.590;2022-11-04T08:35:09;22.40;;;11.07;;
71626;SDS011;59475;52.464;13.590;2022-11-04T08:37:36;21.98;;;12.00;;
71626;SDS011;59475;52.464;13.590;2022-11-04T08:40:02;20.07;;;11.20;;
71626;SDS011;59475;52.464;13.590;2022-11-04T08:42:29;21.58;;;12.63;;
71626;SDS011;59475;52.464;13.590;2022-11-04T08:44:54;19.95;;;12.90;;
71626;SDS011;59475;52.464;13.590;2022-11-04T08:47:20;20.47;;;12.30;;
71626;SDS011;59475;52.464;13.590;2022-11-04T08:49:45;18.30;;;11.33;;
71626;SDS011;59475;52.464;13.590;2022-11-04T08:52:10;19.77;;;12.73;;
71626;SDS011;59475;52.464;13.590;2022-11-04T08:54:36;22.13;;;12.82;;
71626;SDS011;59475;52.464;13.590;2022-11-04T08:57:01;19.47;;;12.20;;
71626;SDS011;59475;52.464;13.590;2022-11-04T08:59:27;19.57;;;11.87;;
71626;SDS011;59475;52.464;13.590;2022-11-04T09:01:52;18.60;;;12.43;;
71626;SDS011;59475;52.464;13.590;2022-11-04T09:04:18;19.83;;;12.00;;
71626;SDS011;59475;52.464;13.590;2022-11-04T09:06:44;19.60;;;12.77;;
71626;SDS011;59475;52.464;13.590;2022-11-04T09:09:11;19.15;;;12.48;;
71626;SDS011;59475;52.464;13.590;2022-11-04T09:11:38;19.30;;;11.35;;
71626;SDS011;59475;52.464;13.590;2022-11-04T09:14:05;14.75;;;10.90;;
71626;SDS011;59475;52.464;13.590;2022-11-04T09:16:31;20.48;;;11.82;;
71626;SDS011;59475;52.464;13.590;2022-11-04T09:18:58;20.93;;;12.53;;
71626;SDS011;59475;52.464;13.590;2022-11-04T09:21:26;19.83;;;11.85;;
71626;SDS011;59475;52.464;13.590;2022-11-04T09:23:51;20.08;;;11.48;;
71626;SDS011;59475;52.464;13.590;2022-11-04T09:26:17;17.23;;;10.77;;
71626;SDS011;59475;52.464;13.590;2022-11-04T09:28:44;16.97;;;11.20;;
71626;SDS011;59475;52.464;13.590;2022-11-04T09:31:10;17.20;;;10.63;;
71626;SDS011;59475;52.464;13.590;2022-11-04T09:33:37;17.33;;;9.80;;
71626;SDS011;59475;52.464;13.590;2022-11-04T09:36:03;15.50;;;10.73;;
71626;SDS011;59475;52.464;13.590;2022-11-04T09:38:29;17.17;;;9.50;;
71626;SDS011;59475;52.464;13.590;2022-11-04T09:40:54;17.58;;;10.90;;
71626;SDS011;59475;52.464;13.590;2022-11-04T09:45:57;14.17;;;8.30;;
71626;SDS011;59475;52.464;13.590;2022-11-04T09:48:25;12.55;;;8.73;;
71626;SDS011;59475;52.464;13.590;2022-11-04T09:50:56;12.68;;;8.15;;
71626;SDS011;59475;52.464;13.590;2022-11-04T09:58:39;12.93;;;7.50;;
71626;SDS011;59475;52.464;13.590;2022-11-04T10:09:34;10.27;;;5.60;;
71626;SDS011;59475;52.464;13.590;2022-11-04T10:12:14;14.15;;;6.93;;
71626;SDS011;59475;52.464;13.590;2022-11-04T10:17:36;10.47;;;5.73;;
71626;SDS011;59475;52.464;13.590;2022-11-04T10:20:23;8.90;;;6.10;;
71626;SDS011;59475;52.464;13.590;2022-11-04T10:27:04;9.65;;;6.07;;
71626;SDS011;59475;52.464;13.590;2022-11-04T10:31:58;9.20;;;6.40;;
71626;SDS011;59475;52.464;13.590;2022-11-04T10:37:19;8.50;;;6.03;;
71626;SDS011;59475;52.464;13.590;2022-11-04T10:39:45;10.37;;;6.90;;
71626;SDS011;59475;52.464;13.590;2022-11-04T10:42:17;8.30;;;6.10;;
71626;SDS011;59475;52.464;13.590;2022-11-04T10:44:46;11.50;;;7.00;;
71626;SDS011;59475;52.464;13.590;2022-11-04T10:52:31;12.27;;;6.70;;
71626;SDS011;59475;52.464;13.590;2022-11-04T10:54:58;8.60;;;6.05;;
71626;SDS011;59475;52.464;13.590;2022-11-04T10:57:24;8.83;;;6.37;;
71626;SDS011;59475;52.464;13.590;2022-11-04T11:05:28;10.97;;;6.63;;
71626;SDS011;59475;52.464;13.590;2022-11-04T11:07:54;11.77;;;7.35;;
71626;SDS011;59475;52.464;13.590;2022-11-04T11:10:28;10.43;;;7.68;;
71626;SDS011;59475;52.464;13.590;2022-11-04T11:12:57;11.02;;;7.28;;
71626;SDS011;59475;52.464;13.590;2022-11-04T11:15:35;12.32;;;8.10;;
71626;SDS011;59475;52.464;13.590;2022-11-04T11:18:10;11.03;;;7.30;;
71626;SDS011;59475;52.464;13.590;2022-11-04T11:20:39;9.93;;;7.28;;
71626;SDS011;59475;52.464;13.590;2022-11-04T11:23:05;10.38;;;6.95;;
71626;SDS011;59475;52.464;13.590;2022-11-04T11:25:56;9.48;;;6.80;;
71626;SDS011;59475;52.464;13.590;2022-11-04T11:28:22;8.20;;;6.87;;
71626;SDS011;59475;52.464;13.590;2022-11-04T11:33:22;10.10;;;7.30;;
71626;SDS011;59475;52.464;13.590;2022-11-04T11:38:30;11.00;;;6.72;;
71626;SDS011;59475;52.464;13.590;2022-11-04T11:41:13;9.40;;;7.38;;
71626;SDS011;59475;52.464;13.590;2022-11-04T11:43:48;13.90;;;7.22;;
71626;SDS011;59475;52.464;13.590;2022-11-04T11:46:22;11.02;;;7.55;;
71626;SDS011;59475;52.464;13.590;2022-11-04T11:48:50;13.00;;;7.37;;
71626;SDS011;59475;52.464;13.590;2022-11-04T11:51:22;10.55;;;7.38;;
71626;SDS011;59475;52.464;13.590;2022-11-04T11:53:57;11.13;;;9.00;;
71626;SDS011;59475;52.464;13.590;2022-11-04T11:56:38;13.00;;;8.25;;
71626;SDS011;59475;52.464;13.590;2022-11-04T11:59:23;10.75;;;8.07;;
71626;SDS011;59475;52.464;13.590;2022-11-04T12:04:55;11.85;;;8.15;;
71626;SDS011;59475;52.464;13.590;2022-11-04T12:07:33;11.25;;;7.85;;
71626;SDS011;59475;52.464;13.590;2022-11-04T12:21:14;12.88;;;8.48;;
71626;SDS011;59475;52.464;13.590;2022-11-04T12:23:52;11.70;;;8.52;;
71626;SDS011;59475;52.464;13.590;2022-11-04T12:28:58;13.63;;;9.20;;
71626;SDS011;59475;52.464;13.590;2022-11-04T12:45:16;15.98;;;10.85;;
71626;SDS011;59475;52.464;13.590;2022-11-04T12:48:03;16.73;;;11.25;;
71626;SDS011;59475;52.464;13.590;2022-11-04T12:56:17;14.97;;;10.67;;
71626;SDS011;59475;52.464;13.590;2022-11-04T13:04:14;14.45;;;10.77;;
71626;SDS011;59475;52.464;13.590;2022-11-04T13:06:52;17.98;;;11.93;;
71626;SDS011;59475;52.464;13.590;2022-11-04T13:11:56;17.65;;;11.77;;
71626;SDS011;59475;52.464;13.590;2022-11-04T13:14:46;20.92;;;12.95;;
71626;SDS011;59475;52.464;13.590;2022-11-04T13:17:17;18.92;;;12.35;;
71626;SDS011;59475;52.464;13.590;2022-11-04T13:19:47;18.70;;;12.10;;
71626;SDS011;59475;52.464;13.590;2022-11-04T13:22:17;17.30;;;11.60;;
71626;SDS011;59475;52.464;13.590;2022-11-04T13:25:05;16.33;;;11.38;;
71626;SDS011;59475;52.464;13.590;2022-11-04T13:27:43;14.98;;;11.15;;
71626;SDS011;59475;52.464;13.590;2022-11-04T13:35:30;20.43;;;10.77;;
71626;SDS011;59475;52.464;13.590;2022-11-04T13:38:06;14.45;;;10.32;;
71626;SDS011;59475;52.464;13.590;2022-11-04T13:48:46;16.13;;;11.83;;
71626;SDS011;59475;52.464;13.590;2022-11-04T13:51:38;15.52;;;11.13;;
71626;SDS011;59475;52.464;13.590;2022-11-04T13:54:25;14.05;;;10.35;;
71626;SDS011;59475;52.464;13.590;2022-11-04T14:00:04;15.88;;;12.15;;
71626;SDS011;59475;52.464;13.590;2022-11-04T14:08:07;21.35;;;14.20;;
71626;SDS011;59475;52.464;13.590;2022-11-04T14:18:27;19.05;;;12.63;;
71626;SDS011;59475;52.464;13.590;2022-11-04T14:21:10;23.65;;;12.52;;
71626;SDS011;59475;52.464;13.590;2022-11-04T14:23:56;15.73;;;10.32;;
71626;SDS011;59475;52.464;13.590;2022-11-04T14:26:28;14.65;;;10.82;;
71626;SDS011;59475;52.464;13.590;2022-11-04T14:29:07;17.27;;;11.57;;
71626;SDS011;59475;52.464;13.590;2022-11-04T14:31:40;16.30;;;12.07;;
71626;SDS011;59475;52.464;13.590;2022-11-04T14:34:23;14.73;;;11.23;;
71626;SDS011;59475;52.464;13.590;2022-11-04T14:36:54;15.02;;;11.63;;
71626;SDS011;59475;52.464;13.590;2022-11-04T14:39:40;15.60;;;10.20;;
71626;SDS011;59475;52.464;13.590;2022-11-04T14:42:07;12.70;;;9.23;;
71626;SDS011;59475;52.464;13.590;2022-11-04T14:44:40;14.45;;;9.65;;
71626;SDS011;59475;52.464;13.590;2022-11-04T14:49:51;17.02;;;10.48;;
71626;SDS011;59475;52.464;13.590;2022-11-04T14:53:27;17.60;;;11.23;;
71626;SDS011;59475;52.464;13.590;2022-11-04T14:55:30;18.00;;;10.70;;
71626;SDS011;59475;52.464;13.590;2022-11-04T15:03:22;15.03;;;10.80;;
71626;SDS011;59475;52.464;13.590;2022-11-04T15:05:51;16.17;;;11.32;;
71626;SDS011;59475;52.464;13.590;2022-11-04T15:08:32;16.08;;;11.75;;
71626;SDS011;59475;52.464;13.590;2022-11-04T15:13:35;14.38;;;10.60;;
71626;SDS011;59475;52.464;13.590;2022-11-04T15:16:05;14.45;;;10.07;;
71626;SDS011;59475;52.464;13.590;2022-11-04T15:18:35;14.30;;;10.60;;
71626;SDS011;59475;52.464;13.590;2022-11-04T15:21:03;14.57;;;11.23;;
71626;SDS011;59475;52.464;13.590;2022-11-04T15:23:30;15.83;;;11.50;;
71626;SDS011;59475;52.464;13.590;2022-11-04T15:26:00;20.65;;;12.68;;
71626;SDS011;59475;52.464;13.590;2022-11-04T15:28:28;16.50;;;11.80;;
71626;SDS011;59475;52.464;13.590;2022-11-04T15:31:06;14.68;;;11.43;;
71626;SDS011;59475;52.464;13.590;2022-11-04T15:33:41;15.70;;;11.02;;
71626;SDS011;59475;52.464;13.590;2022-11-04T15:36:37;16.80;;;12.40;;
71626;SDS011;59475;52.464;13.590;2022-11-04T15:39:04;18.77;;;12.45;;
71626;SDS011;59475;52.464;13.590;2022-11-04T15:41:36;21.35;;;13.18;;
71626;SDS011;59475;52.464;13.590;2022-11-04T15:44:25;20.90;;;14.35;;
71626;SDS011;59475;52.464;13.590;2022-11-04T15:49:31;41.90;;;20.03;;
71626;SDS011;59475;52.464;13.590;2022-11-04T15:52:11;21.00;;;13.20;;
71626;SDS011;59475;52.464;13.590;2022-11-04T15:54:40;20.23;;;12.55;;
71626;SDS011;59475;52.464;13.590;2022-11-04T15:57:15;17.95;;;11.68;;
71626;SDS011;59475;52.464;13.590;2022-11-04T15:59:48;17.75;;;12.43;;
71626;SDS011;59475;52.464;13.590;2022-11-04T16:02:24;21.47;;;12.27;;
71626;SDS011;59475;52.464;13.590;2022-11-04T16:07:37;19.88;;;13.25;;
71626;SDS011;59475;52.464;13.590;2022-11-04T16:12:49;21.02;;;14.18;;
71626;SDS011;59475;52.464;13.590;2022-11-04T16:15:35;22.17;;;14.13;;
71626;SDS011;59475;52.464;13.590;2022-11-04T16:18:05;20.73;;;14.30;;
71626;SDS011;59475;52.464;13.590;2022-11-04T16:20:43;20.73;;;14.38;;
71626;SDS011;59475;52.464;13.590;2022-11-04T16:23:15;22.98;;;14.63;;
71626;SDS011;59475;52.464;13.590;2022-11-04T16:25:43;21.85;;;14.27;;
71626;SDS011;59475;52.464;13.590;2022-11-04T16:28:21;24.93;;;16.40;;
71626;SDS011;59475;52.464;13.590;2022-11-04T16:30:57;24.48;;;15.68;;
71626;SDS011;59475;52.464;13.590;2022-11-04T16:33:26;28.08;;;17.65;;
71626;SDS011;59475;52.464;13.590;2022-11-04T16:35:52;34.63;;;21.67;;
71626;SDS011;59475;52.464;13.590;2022-11-04T16:38:17;31.67;;;20.83;;
71626;SDS011;59475;52.464;13.590;2022-11-04T16:40:43;28.50;;;16.63;;
71626;SDS011;59475;52.464;13.590;2022-11-04T16:43:10;24.90;;;16.58;;
71626;SDS011;59475;52.464;13.590;2022-11-04T16:45:37;26.38;;;15.45;;
71626;SDS011;59475;52.464;13.590;2022-11-04T16:48:03;25.13;;;14.90;;
71626;SDS011;59475;52.464;13.590;2022-11-04T16:50:29;30.20;;;18.75;;
71626;SDS011;59475;52.464;13.590;2022-11-04T16:52:58;31.20;;;19.73;;
71626;SDS011;59475;52.464;13.590;2022-11-04T16:55:25;29.65;;;18.00;;
71626;SDS011;59475;52.464;13.590;2022-11-04T16:57:56;25.23;;;15.63;;
71626;SDS011;59475;52.464;13.590;2022-11-04T17:00:24;23.75;;;15.20;;
71626;SDS011;59475;52.464;13.590;2022-11-04T17:02:51;21.00;;;14.20;;
71626;SDS011;59475;52.464;13.590;2022-11-04T17:05:17;22.57;;;13.97;;
71626;SDS011;59475;52.464;13.590;2022-11-04T17:07:43;19.33;;;12.35;;
71626;SDS011;59475;52.464;13.590;2022-11-04T17:10:16;19.50;;;13.82;;
71626;SDS011;59475;52.464;13.590;2022-11-04T17:12:44;19.38;;;13.05;;
71626;SDS011;59475;52.464;13.590;2022-11-04T17:15:11;18.90;;;12.23;;
71626;SDS011;59475;52.464;13.590;2022-11-04T17:17:37;18.00;;;12.60;;
71626;SDS011;59475;52.464;13.590;2022-11-04T17:20:03;22.65;;;13.65;;
71626;SDS011;59475;52.464;13.590;2022-11-04T17:22:30;19.03;;;12.63;;
71626;SDS011;59475;52.464;13.590;2022-11-04T17:24:57;15.50;;;11.95;;
71626;SDS011;59475;52.464;13.590;2022-11-04T17:27:22;22.47;;;12.53;;
71626;SDS011;59475;52.464;13.590;2022-11-04T17:29:47;21.87;;;12.93;;
71626;SDS011;59475;52.464;13.590;2022-11-04T17:32:13;20.38;;;14.07;;
71626;SDS011;59475;52.464;13.590;2022-11-04T17:34:38;18.37;;;12.47;;
71626;SDS011;59475;52.464;13.590;2022-11-04T17:37:04;19.65;;;12.10;;